PIL weather

Port Isabel Cameron County Airport
Port Isabel, Texas, United States

Public forecast

Using degrees Fahrenheit for public forecast. Weather courtesy of forecast.io.

METAR (pilot weather report)

Retrieved 2019/08/18 17:53 UTC (48 minutes ago):

KPIL 181753Z AUTO 17015G24KT 10SM FEW041 FEW050 35/23 A2988 RMK AO2 SLP116 T03500228 10356 20278 58001 $

TAF (pilot weather forecast)

Closest forecast is Brownsville South Padre Island International Airport, 16.2 nm (29.9 km) SSW. Retrieved 2019/08/18 18:22 UTC (19 minutes ago):

TAF KBRO 181720Z 1818/1918 15019G25KT P6SM SCT040 FM190300 14010KT P6SM SCT030 FM191500 16015KT P6SM FEW030 SCT040